Time;durP1;ratioP1;P1;durP2;ratioP2;P2;SDS_P1;SDS_P2;PMS_P1;PMS_P2;Temp;Humidity;BMP_temperature;BMP_pressure;BME280_temperature;BME280_humidity;BME280_pressure;Samples;Min_cycle;Max_cycle;Signal;HPM_P1;HPM_P2
2024/01/12 00:02:20;;;;;;;27.75;14.85;;;;;;;0.40;51.78;100368.69;7793344;32;37896;-85
2024/01/12 00:06:36;;;;;;;29.98;15.52;;;;;;;0.30;51.54;100361.81;7793303;32;37087;-85
2024/01/12 00:10:53;;;;;;;26.90;14.98;;;;;;;0.34;51.23;100356.88;7793308;32;39224;-85
2024/01/12 00:15:09;;;;;;;28.80;15.35;;;;;;;0.36;51.79;100360.19;7779302;32;40836;-86
2024/01/12 00:19:25;;;;;;;24.80;14.10;;;;;;;-0.24;53.18;100370.28;7793237;32;37701;-85
2024/01/12 00:23:42;;;;;;;32.67;15.25;;;;;;;0.23;51.40;100371.63;7792960;32;37216;-83
2024/01/12 00:27:58;;;;;;;28.20;13.93;;;;;;;0.53;50.58;100375.03;7774259;32;39179;-86
2024/01/12 00:32:15;;;;;;;28.75;16.40;;;;;;;0.28;51.28;100376.44;7765562;32;39928;-86
2024/01/12 00:36:31;;;;;;;26.95;14.73;;;;;;;0.16;51.59;100384.97;7765648;32;37813;-85
2024/01/12 00:40:47;;;;;;;27.35;14.50;;;;;;;0.41;51.12;100383.78;7765846;32;36866;-85
2024/01/12 00:45:04;;;;;;;34.80;15.10;;;;;;;0.45;50.78;100375.16;7765745;32;40002;-85
2024/01/12 00:49:21;;;;;;;27.70;15.48;;;;;;;0.24;51.26;100380.50;7765561;32;40000;-86
2024/01/12 00:53:37;;;;;;;28.25;15.68;;;;;;;0.23;51.40;100387.72;7765537;32;38832;-86
2024/01/12 00:57:53;;;;;;;27.30;15.38;;;;;;;0.45;51.42;100380.53;7764405;32;36823;-84
2024/01/12 01:02:10;;;;;;;25.67;14.70;;;;;;;0.27;52.25;100383.63;7765595;32;39059;-84
2024/01/12 01:06:26;;;;;;;25.58;15.00;;;;;;;0.21;52.79;100389.78;7765520;32;39979;-84
2024/01/12 01:10:43;;;;;;;27.33;14.50;;;;;;;0.19;52.62;100389.13;7765415;32;38813;-85
2024/01/12 01:15:00;;;;;;;28.20;14.48;;;;;;;0.23;53.03;100384.22;7765393;32;37672;-85
2024/01/12 01:19:17;;;;;;;28.42;15.10;;;;;;;-0.35;54.41;100392.16;7772406;32;37173;-85
2024/01/12 01:23:33;;;;;;;30.08;15.93;;;;;;;-0.22;54.61;100387.00;7792316;32;39723;-85
2024/01/12 01:27:50;;;;;;;25.02;14.18;;;;;;;-0.40;54.67;100388.22;7772950;32;37741;-85
2024/01/12 01:32:06;;;;;;;28.58;14.65;;;;;;;-0.40;54.71;100390.88;7765214;32;37377;-84
2024/01/12 01:36:22;;;;;;;26.05;13.77;;;;;;;-0.15;54.05;100393.25;7765193;32;39253;-84
2024/01/12 01:40:39;;;;;;;30.35;14.75;;;;;;;-0.10;53.66;100392.72;7764965;32;40764;-86
2024/01/12 01:44:55;;;;;;;28.12;14.90;;;;;;;-0.04;53.50;100397.31;7763920;32;38043;-86
2024/01/12 01:49:11;;;;;;;32.75;15.57;;;;;;;-0.46;54.55;100399.66;7765050;32;36823;-85
2024/01/12 01:53:28;;;;;;;29.65;15.27;;;;;;;-0.19;54.28;100394.62;7764888;32;38976;-85
2024/01/12 01:57:45;;;;;;;30.90;15.35;;;;;;;-0.10;54.32;100408.78;7764798;32;39758;-84
2024/01/12 02:02:03;;;;;;;27.10;14.77;;;;;;;-0.27;54.50;100410.84;7764745;32;37873;-84
2024/01/12 02:06:23;;;;;;;27.60;14.07;;;;;;;-0.66;55.27;100419.94;7751160;32;36244;-85
2024/01/12 02:10:40;;;;;;;28.00;14.07;;;;;;;-0.20;53.93;100435.88;7764645;32;39825;-85
2024/01/12 02:14:57;;;;;;;26.85;13.85;;;;;;;-0.03;53.34;100431.97;7750857;32;39716;-85
2024/01/12 02:19:13;;;;;;;24.48;14.35;;;;;;;0.00;53.18;100430.78;7772562;32;38869;-85
2024/01/12 02:23:29;;;;;;;32.63;15.65;;;;;;;0.06;53.45;100437.25;7791394;32;37732;-84
2024/01/12 02:27:46;;;;;;;27.62;14.85;;;;;;;-0.23;54.07;100441.59;7765818;32;39713;-86
2024/01/12 02:32:03;;;;;;;31.58;15.57;;;;;;;-0.29;53.72;100447.72;7750362;32;39906;-85
2024/01/12 02:36:19;;;;;;;31.42;14.82;;;;;;;-0.28;53.47;100454.72;7763718;32;38257;-85
2024/01/12 02:40:36;;;;;;;28.50;15.73;;;;;;;-0.16;53.16;100455.91;7764704;32;37084;-85
2024/01/12 02:44:52;;;;;;;29.23;15.95;;;;;;;0.09;52.37;100459.12;7763974;32;39422;-85
2024/01/12 02:49:08;;;;;;;28.20;14.98;;;;;;;-0.19;53.08;100467.00;7763702;32;39930;-85
2024/01/12 02:53:24;;;;;;;26.45;14.90;;;;;;;-0.08;53.08;100450.47;7763477;32;38017;-86
2024/01/12 02:57:41;;;;;;;31.65;15.82;;;;;;;-0.34;54.41;100444.75;7765470;32;37940;-85
2024/01/12 03:01:57;;;;;;;28.80;14.20;;;;;;;-0.20;54.06;100435.88;7767033;32;39546;-85
2024/01/12 03:06:13;;;;;;;27.85;15.18;;;;;;;-0.93;56.62;100443.63;7766906;32;39766;-86
2024/01/12 03:10:30;;;;;;;30.73;15.13;;;;;;;-0.54;55.50;100449.81;7766866;32;38097;-85
2024/01/12 03:14:46;;;;;;;30.50;15.40;;;;;;;-0.94;56.82;100439.28;7766823;32;37086;-86
2024/01/12 03:19:03;;;;;;;29.35;14.05;;;;;;;-0.77;56.10;100440.81;7784235;32;39176;-85
2024/01/12 03:23:20;;;;;;;31.98;15.32;;;;;;;-0.43;54.65;100438.62;7793658;32;40868;-84
2024/01/12 03:27:36;;;;;;;24.77;13.50;;;;;;;-0.37;53.96;100445.09;7793964;32;38051;-85
2024/01/12 03:31:52;;;;;;;26.62;14.45;;;;;;;-0.69;54.97;100439.91;7793736;32;37210;-85
2024/01/12 03:36:09;;;;;;;31.02;14.45;;;;;;;-0.60;55.05;100440.66;7793653;32;39970;-85
2024/01/12 03:40:25;;;;;;;32.10;14.87;;;;;;;-0.49;54.92;100437.50;7779413;32;39675;-85
2024/01/12 03:44:42;;;;;;;31.77;15.85;;;;;;;-0.63;54.73;100439.16;7779471;32;37859;-85
2024/01/12 03:48:58;;;;;;;27.60;15.38;;;;;;;-0.67;54.98;100445.91;7793588;32;37942;-85
2024/01/12 03:53:15;;;;;;;27.13;15.10;;;;;;;-0.54;54.94;100445.25;7793527;32;40121;-85
2024/01/12 03:57:31;;;;;;;31.95;14.93;;;;;;;-0.70;55.41;100454.28;7793455;32;39661;-84
2024/01/12 04:01:48;;;;;;;30.52;14.85;;;;;;;-1.01;56.54;100449.06;7793418;32;38682;-85
2024/01/12 04:06:10;;;;;;;29.77;15.55;;;;;;;-0.99;56.65;100447.03;7793422;32;37919;-85
2024/01/12 04:10:27;;;;;;;26.62;15.20;;;;;;;-0.92;56.60;100439.09;7776234;32;40118;-85
2024/01/12 04:14:46;;;;;;;33.08;15.27;;;;;;;-1.12;56.87;100452.12;7766158;32;41248;-85
2024/01/12 04:19:02;;;;;;;32.78;14.93;;;;;;;-0.88;55.95;100441.25;7766811;32;37997;-85
2024/01/12 04:23:18;;;;;;;25.40;14.40;;;;;;;-0.68;55.01;100443.41;7765877;32;37858;-86
2024/01/12 04:27:35;;;;;;;25.73;14.25;;;;;;;-0.95;55.30;100441.13;7765921;32;39358;-85
2024/01/12 04:31:51;;;;;;;22.10;13.57;;;;;;;-1.00;55.01;100446.19;7765797;32;40837;-86
2024/01/12 04:36:07;;;;;;;24.67;13.50;;;;;;;-1.12;55.66;100447.63;7765719;32;38447;-85
2024/01/12 04:40:24;;;;;;;25.27;14.00;;;;;;;-0.89;55.04;100447.59;7765945;32;37724;-85
2024/01/12 04:44:42;;;;;;;27.33;13.90;;;;;;;-0.82;54.61;100447.72;7765896;32;39296;-85
2024/01/12 04:48:58;;;;;;;24.00;14.48;;;;;;;-1.03;55.16;100461.78;7765649;32;41743;-85
2024/01/12 04:53:14;;;;;;;32.33;15.20;;;;;;;-0.95;54.84;100467.06;7765469;32;38738;-85
2024/01/12 04:57:31;;;;;;;27.80;15.20;;;;;;;-0.86;54.40;100468.66;7765589;32;38067;-85
2024/01/12 05:01:47;;;;;;;28.62;14.38;;;;;;;-0.89;54.29;100478.91;7765664;32;40573;-85
2024/01/12 05:06:04;;;;;;;35.63;18.90;;;;;;;-1.22;55.14;100490.69;7765528;32;39642;-85
2024/01/12 05:10:20;;;;;;;27.33;15.75;;;;;;;-0.84;54.31;100490.72;7765403;32;38917;-86
2024/01/12 05:14:36;;;;;;;31.73;16.75;;;;;;;-0.70;54.13;100509.72;7751512;32;37086;-85
2024/01/12 05:18:53;;;;;;;33.65;16.80;;;;;;;-1.04;55.10;100524.34;7787688;32;39208;-85
2024/01/12 05:23:09;;;;;;;29.15;14.60;;;;;;;-1.36;56.04;100528.91;7792477;32;40679;-84
2024/01/12 05:27:25;;;;;;;29.10;14.05;;;;;;;-1.25;56.34;100530.34;7792339;32;38599;-85
2024/01/12 05:31:45;;;;;;;24.63;13.68;;;;;;;-1.37;56.84;100529.91;7792410;32;37144;-85
2024/01/12 05:36:01;;;;;;;36.75;20.45;;;;;;;-1.32;56.75;100540.91;7792256;32;38928;-85
2024/01/12 05:40:18;;;;;;;32.00;17.12;;;;;;;-1.36;56.68;100531.56;7789209;32;39892;-85
2024/01/12 05:44:35;;;;;;;30.92;17.37;;;;;;;-1.05;55.72;100544.94;7751177;32;37950;-86
2024/01/12 05:48:51;;;;;;;26.83;15.15;;;;;;;-1.23;57.45;100539.00;7764978;32;37980;-85
2024/01/12 05:53:07;;;;;;;24.48;13.32;;;;;;;-1.12;57.02;100548.47;7764893;32;39865;-87
2024/01/12 05:57:23;;;;;;;23.87;11.88;;;;;;;-1.02;56.65;100549.09;7764833;32;40625;-85
2024/01/12 06:01:40;;;;;;;22.17;11.70;;;;;;;-1.25;57.55;100544.53;7764812;32;37680;-87
2024/01/12 06:05:57;;;;;;;22.23;12.02;;;;;;;-1.47;58.35;100550.69;7765210;32;37160;-83
2024/01/12 06:10:14;;;;;;;20.17;11.95;;;;;;;-1.14;57.42;100557.53;7765547;32;38937;-84
2024/01/12 06:14:30;;;;;;;24.50;10.85;;;;;;;-1.11;57.54;100568.87;7764606;32;40229;-84
2024/01/12 06:18:46;;;;;;;18.80;10.18;;;;;;;-1.19;57.57;100567.94;7764400;32;38677;-84
2024/01/12 06:23:03;;;;;;;16.17;10.23;;;;;;;-1.32;58.03;100578.34;7764235;32;37170;-85
2024/01/12 06:27:20;;;;;;;25.35;10.98;;;;;;;-1.96;59.62;100578.44;7776504;32;39374;-84
2024/01/12 06:31:36;;;;;;;19.83;11.75;;;;;;;-1.27;57.90;100575.16;7790821;32;40798;-85
2024/01/12 06:35:52;;;;;;;21.12;11.90;;;;;;;-1.23;57.48;100574.62;7791224;32;38678;-85
2024/01/12 06:40:09;;;;;;;20.70;11.12;;;;;;;-1.09;57.24;100575.72;7791285;32;37064;-85
2024/01/12 06:44:25;;;;;;;20.83;11.30;;;;;;;-1.16;57.36;100582.78;7791119;32;39962;-84
2024/01/12 06:48:42;;;;;;;18.70;10.63;;;;;;;-1.18;57.46;100591.00;7790991;32;40102;-85
2024/01/12 06:52:59;;;;;;;22.92;11.25;;;;;;;-1.03;57.34;100585.72;7790684;32;37926;-85
2024/01/12 06:57:16;;;;;;;24.50;10.40;;;;;;;-1.01;57.37;100588.22;7777045;32;37182;-85
2024/01/12 07:01:32;;;;;;;17.75;10.90;;;;;;;-0.82;56.75;100590.44;7790736;32;39311;-82
2024/01/12 07:05:49;;;;;;;18.52;10.40;;;;;;;-0.80;56.42;100591.09;7790520;32;39772;-85
2024/01/12 07:10:06;;;;;;;17.23;10.23;;;;;;;-0.99;56.87;100605.78;7774865;32;38072;-85
2024/01/12 07:14:22;;;;;;;20.08;11.45;;;;;;;-0.78;56.49;100605.16;7790279;32;37965;-86
2024/01/12 07:18:38;;;;;;;16.83;10.00;;;;;;;-0.82;57.31;100603.84;7789445;32;38904;-85
2024/01/12 07:22:57;;;;;;;22.58;10.73;;;;;;;-0.97;57.61;100605.59;7763566;32;39053;-84
2024/01/12 07:27:13;;;;;;;17.37;11.38;;;;;;;-0.58;56.15;100602.81;7763142;32;38068;-84
2024/01/12 07:31:31;;;;;;;23.92;11.98;;;;;;;-0.59;55.91;100597.66;7778466;32;36886;-76
2024/01/12 07:35:47;;;;;;;21.27;12.02;;;;;;;-0.18;62.02;100600.00;7789693;32;39299;-84
2024/01/12 07:40:04;;;;;;;22.60;10.82;;;;;;;0.11;58.45;100607.25;7789639;32;40532;-85
2024/01/12 07:44:21;;;;;;;20.50;10.52;;;;;;;-0.37;56.75;100608.53;7791357;32;38732;-80
2024/01/12 07:48:37;;;;;;;19.12;11.15;;;;;;;-0.27;57.02;100601.91;7793685;32;37966;-81
2024/01/12 07:52:54;;;;;;;17.60;10.63;;;;;;;0.01;56.95;100592.47;7793601;32;38947;-80
2024/01/12 07:57:10;;;;;;;16.25;10.65;;;;;;;-0.01;56.66;100606.87;7793378;32;41017;-81
2024/01/12 08:01:26;;;;;;;15.80;10.00;;;;;;;0.09;56.01;100616.50;7793312;32;37898;-80
2024/01/12 08:05:43;;;;;;;21.00;10.85;;;;;;;-0.46;57.21;100627.34;7793319;32;37973;-81
2024/01/12 08:09:59;;;;;;;16.45;10.10;;;;;;;0.10;55.93;100634.25;7780696;32;39376;-81
2024/01/12 08:14:15;;;;;;;17.12;9.45;;;;;;;0.07;56.34;100634.59;7790064;32;39636;-81
2024/01/12 08:18:32;;;;;;;15.43;9.70;;;;;;;0.30;55.68;100640.75;7779206;32;37654;-81
2024/01/12 08:22:48;;;;;;;17.87;10.70;;;;;;;0.03;56.34;100647.53;7767970;32;37834;-81
2024/01/12 08:27:04;;;;;;;17.08;10.00;;;;;;;-0.15;57.40;100657.78;7793133;32;39230;-81
2024/01/12 08:31:22;;;;;;;17.70;9.73;;;;;;;0.04;57.15;100659.94;7792971;32;40948;-80
2024/01/12 08:35:38;;;;;;;19.52;10.75;;;;;;;0.42;55.75;100653.72;7792123;32;38044;-80
2024/01/12 08:39:54;;;;;;;14.07;8.45;;;;;;;-0.11;57.28;100664.44;7791765;32;37040;-78
2024/01/12 08:44:13;;;;;;;15.55;9.05;;;;;;;0.27;56.12;100673.31;7793003;32;39944;-78
2024/01/12 08:48:29;;;;;;;15.98;9.27;;;;;;;0.11;56.92;100684.19;7793094;32;40748;-79
2024/01/12 08:52:46;;;;;;;17.70;10.85;;;;;;;0.45;55.50;100686.38;7792604;32;37984;-78
2024/01/12 08:57:03;;;;;;;17.33;10.45;;;;;;;0.47;56.16;100678.16;7792295;32;37888;-78
2024/01/12 09:01:20;;;;;;;15.50;8.73;;;;;;;0.44;58.95;100689.25;7792889;32;39358;-84
2024/01/12 09:05:36;;;;;;;16.55;9.27;;;;;;;0.40;55.04;100687.94;7792749;32;39929;-83
2024/01/12 09:09:53;;;;;;;16.70;10.43;;;;;;;0.27;54.88;100700.12;7791617;32;38017;-83
2024/01/12 09:14:09;;;;;;;19.00;10.73;;;;;;;0.51;53.86;100693.69;7792811;32;38324;-84
2024/01/12 09:18:25;;;;;;;20.15;11.43;;;;;;;0.70;54.51;100699.53;7777223;32;39696;-83
2024/01/12 09:22:42;;;;;;;18.27;9.98;;;;;;;0.46;54.95;100700.63;7765209;32;40548;-83
2024/01/12 09:26:58;;;;;;;16.87;9.65;;;;;;;0.81;53.63;100701.78;7765192;32;38058;-84
2024/01/12 09:31:15;;;;;;;15.70;8.88;;;;;;;0.46;54.36;100697.94;7765384;32;36944;-84
2024/01/12 09:35:31;;;;;;;16.17;10.38;;;;;;;0.69;54.64;100698.72;7765130;32;40042;-84
2024/01/12 09:39:48;;;;;;;16.33;9.45;;;;;;;0.90;53.92;100700.63;7765145;32;39595;-84
2024/01/12 09:44:06;;;;;;;16.85;9.07;;;;;;;1.07;53.38;100701.28;7765081;32;37912;-85
2024/01/12 09:48:23;;;;;;;18.67;10.32;;;;;;;0.73;54.14;100700.00;7751389;32;36956;-84
2024/01/12 09:52:40;;;;;;;25.08;10.45;;;;;;;0.69;53.99;100698.72;7765047;32;39226;-84
2024/01/12 09:56:56;;;;;;;18.98;9.77;;;;;;;0.24;55.61;100705.84;7776974;32;40039;-83
2024/01/12 10:01:13;;;;;;;21.23;10.75;;;;;;;0.20;55.74;100699.19;7772141;32;38806;-82
2024/01/12 10:05:29;;;;;;;22.08;12.43;;;;;;;0.73;55.02;100688.44;7753237;32;36814;-84
2024/01/12 10:09:46;;;;;;;19.27;10.60;;;;;;;0.84;55.25;100679.06;7764410;32;39789;-84
2024/01/12 10:14:04;;;;;;;16.55;7.90;;;;;;;0.97;54.85;100690.00;7764474;32;39902;-84
2024/01/12 10:18:20;;;;;;;18.17;8.70;;;;;;;1.03;54.37;100683.03;7750909;32;38785;-83
2024/01/12 10:22:36;;;;;;;19.40;9.48;;;;;;;0.78;54.63;100674.44;7767561;32;150588;-83
2024/01/12 10:26:53;;;;;;;20.75;9.68;;;;;;;1.05;54.76;100671.09;7786315;32;40150;-83
2024/01/12 10:31:09;;;;;;;23.08;10.27;;;;;;;1.56;53.28;100672.06;7777044;32;40017;-83
2024/01/12 10:35:25;;;;;;;16.75;9.48;;;;;;;1.33;54.07;100672.22;7764155;32;37532;-83
2024/01/12 10:39:45;;;;;;;15.55;9.65;;;;;;;1.38;55.14;100669.81;7769829;32;37239;-82
2024/01/12 10:44:04;;;;;;;22.20;10.55;;;;;;;1.29;53.51;100672.62;7789462;32;38938;-83
2024/01/12 10:48:23;;;;;;;19.98;10.48;;;;;;;1.32;53.07;100671.41;7778494;32;39974;-83
2024/01/12 10:53:05;;;;;;;16.48;9.75;;;;;;;1.85;52.00;100666.56;7763106;32;38003;-83
2024/01/12 10:57:21;;;;;;;16.55;8.82;;;;;;;1.62;53.05;100664.09;7781547;32;37888;-84
2024/01/12 11:01:38;;;;;;;14.98;8.65;;;;;;;1.58;53.01;100675.41;7766331;32;39781;-85
2024/01/12 11:05:56;;;;;;;16.50;9.27;;;;;;;1.36;53.29;100669.97;7783626;32;39928;-82
2024/01/12 11:10:16;;;;;;;17.52;8.93;;;;;;;1.65;53.34;100661.00;7775700;32;38744;-83
2024/01/12 11:14:32;;;;;;;17.20;8.77;;;;;;;1.90;51.69;100646.31;7769074;32;37050;-84
2024/01/12 11:18:48;;;;;;;15.23;8.70;;;;;;;1.95;52.04;100647.44;7765915;32;39814;-82
2024/01/12 11:23:08;;;;;;;18.33;9.23;;;;;;;2.52;50.83;100634.78;7766644;32;40984;-81
2024/01/12 11:27:34;;;;;;;20.55;9.70;;;;;;;3.14;54.56;100629.44;7766794;32;38094;-81
2024/01/12 11:31:51;;;;;;;17.73;8.80;;;;;;;3.02;50.09;100613.06;7767298;32;37144;-83
2024/01/12 11:36:15;;;;;;;18.37;9.32;;;;;;;2.74;49.85;100607.75;7766668;32;39403;-84
2024/01/12 11:40:32;;;;;;;21.10;10.45;;;;;;;2.78;49.25;100611.72;7779996;32;40696;-83
2024/01/12 11:44:50;;;;;;;19.15;10.38;;;;;;;2.85;49.80;100604.50;7782061;32;36838;-83
2024/01/12 11:49:08;;;;;;;18.87;8.88;;;;;;;3.18;49.33;100612.69;7752893;32;37934;-84
2024/01/12 11:53:25;;;;;;;19.37;10.23;;;;;;;2.85;48.72;100609.06;7781313;32;39244;-84
2024/01/12 11:57:42;;;;;;;15.90;8.48;;;;;;;2.96;48.67;100598.53;7777452;32;39764;-83
2024/01/12 12:02:00;;;;;;;16.15;8.30;;;;;;;4.00;46.58;100582.91;7766253;32;38067;-85
2024/01/12 12:06:17;;;;;;;15.98;8.40;;;;;;;4.37;45.31;100582.44;7766453;32;36971;-84
2024/01/12 12:10:33;;;;;;;19.12;9.02;;;;;;;4.24;45.75;100578.72;7766227;32;39712;-83
2024/01/12 12:15:07;;;;;;;18.23;8.40;;;;;;;5.05;43.72;100568.44;7766071;32;39913;-83
2024/01/12 12:19:25;;;;;;;14.55;7.20;;;;;;;5.16;42.63;100553.44;7777687;32;38939;-85
2024/01/12 12:23:43;;;;;;;16.80;8.60;;;;;;;5.40;41.48;100551.81;7777285;32;37114;-84
2024/01/12 12:27:59;;;;;;;13.62;6.78;;;;;;;5.83;39.31;100551.06;7793202;32;38899;-84
2024/01/12 12:32:16;;;;;;;14.35;6.68;;;;;;;6.94;37.41;100542.97;7792101;32;39741;-84
2024/01/12 12:36:32;;;;;;;12.48;6.18;;;;;;;7.15;36.15;100544.34;7793049;32;38022;-85
2024/01/12 12:40:48;;;;;;;14.70;5.55;;;;;;;7.10;34.95;100542.31;7789655;32;38025;-84
2024/01/12 12:45:06;;;;;;;11.30;5.90;;;;;;;6.88;35.98;100536.59;7779284;32;39192;-84
2024/01/12 12:49:29;;;;;;;12.45;6.05;;;;;;;6.82;36.33;100529.38;7776469;32;40789;-84
2024/01/12 12:53:46;;;;;;;13.10;5.78;;;;;;;6.67;36.71;100526.22;7778017;32;37945;-84
2024/01/12 12:58:02;;;;;;;15.27;5.70;;;;;;;7.44;35.75;100515.53;7777504;32;37820;-83
2024/01/12 13:02:18;;;;;;;11.93;6.10;;;;;;;7.14;35.78;100516.41;7778427;32;39191;-84
2024/01/12 13:06:35;;;;;;;13.30;5.93;;;;;;;7.29;34.81;100512.44;7777734;32;39963;-84
2024/01/12 13:10:52;;;;;;;12.80;6.32;;;;;;;7.01;35.70;100522.00;7778983;32;37665;-84
2024/01/12 13:15:09;;;;;;;10.35;5.53;;;;;;;7.02;35.47;100520.97;7776990;32;37108;-84
2024/01/12 13:19:25;;;;;;;10.82;5.95;;;;;;;7.50;35.01;100514.59;7779620;32;38994;-84
2024/01/12 13:23:42;;;;;;;12.40;5.70;;;;;;;8.26;34.22;100503.00;7780416;32;39886;-84
2024/01/12 13:27:59;;;;;;;13.45;5.10;;;;;;;7.99;32.89;100497.28;7778546;32;38911;-85
2024/01/12 13:32:15;;;;;;;14.82;5.60;;;;;;;8.35;32.82;100492.62;7792543;32;36994;-84
2024/01/12 13:36:31;;;;;;;10.05;5.22;;;;;;;9.11;31.89;100489.75;7792425;32;38901;-84
2024/01/12 13:40:48;;;;;;;11.27;5.32;;;;;;;8.97;31.41;100497.41;7791276;32;40540;-83
2024/01/12 13:45:04;;;;;;;10.00;5.65;;;;;;;8.53;31.25;100492.47;7792287;32;38123;-84
2024/01/12 13:49:21;;;;;;;13.30;5.72;;;;;;;8.75;31.36;100486.38;7780438;32;37109;-82
2024/01/12 13:53:37;;;;;;;14.73;5.25;;;;;;;10.74;28.87;100479.56;7777096;32;39032;-83
2024/01/12 13:57:54;;;;;;;12.65;5.12;;;;;;;14.19;23.42;100477.13;7776920;32;38822;-83
2024/01/12 14:02:10;;;;;;;9.93;4.93;;;;;;;16.57;19.95;100465.94;7777791;32;38095;-83
2024/01/12 14:06:26;;;;;;;10.90;5.35;;;;;;;18.00;18.18;100466.44;7785034;32;36936;-83
2024/01/12 14:10:44;;;;;;;11.40;4.95;;;;;;;18.20;18.15;100464.41;7791944;32;39053;-83
2024/01/12 14:15:01;;;;;;;9.50;5.03;;;;;;;16.95;19.07;100463.22;7777976;32;40107;-83
2024/01/12 14:19:18;;;;;;;11.82;5.47;;;;;;;16.00;19.81;100474.84;7777938;32;37906;-84
2024/01/12 14:23:34;;;;;;;10.88;5.32;;;;;;;13.66;22.22;100476.69;7791354;32;36979;-83
2024/01/12 14:27:52;;;;;;;11.75;5.53;;;;;;;12.06;24.24;100477.41;7790425;32;40041;-83
2024/01/12 14:32:08;;;;;;;13.20;5.75;;;;;;;10.46;26.91;100497.78;7777186;32;39969;-85
2024/01/12 14:36:24;;;;;;;11.32;4.95;;;;;;;12.05;24.82;100486.69;7791005;32;38673;-84
2024/01/12 14:40:41;;;;;;;15.57;5.60;;;;;;;13.36;23.36;100477.53;7790600;32;37981;-84
2024/01/12 14:44:57;;;;;;;14.23;7.55;;;;;;;13.18;23.36;100481.59;7790439;32;39283;-86
2024/01/12 14:49:14;;;;;;;16.90;8.80;;;;;;;13.36;23.50;100489.31;7775847;32;39787;-84
2024/01/12 14:53:31;;;;;;;17.58;8.65;;;;;;;12.63;24.78;100492.16;7776678;32;37969;-84
2024/01/12 14:57:49;;;;;;;19.45;9.48;;;;;;;12.86;24.36;100490.84;7771445;32;37620;-83
2024/01/12 15:02:05;;;;;;;17.08;9.18;;;;;;;11.64;25.87;100504.44;7766748;32;39375;-84
2024/01/12 15:06:22;;;;;;;20.40;7.97;;;;;;;9.36;28.93;100503.78;7766868;32;40567;-86
2024/01/12 15:10:38;;;;;;;13.98;7.12;;;;;;;8.15;31.20;100512.81;7767042;32;38025;-84
2024/01/12 15:14:55;;;;;;;15.85;7.65;;;;;;;7.53;32.69;100519.53;7781693;32;37066;-85
2024/01/12 15:19:12;;;;;;;17.27;8.25;;;;;;;6.42;34.64;100521.75;7793829;32;39781;-86
2024/01/12 15:23:28;;;;;;;14.85;7.32;;;;;;;5.83;35.97;100530.22;7793592;32;39854;-86
2024/01/12 15:27:44;;;;;;;15.15;8.32;;;;;;;5.05;37.51;100531.44;7793708;32;38706;-86
2024/01/12 15:32:01;;;;;;;15.23;7.35;;;;;;;4.99;38.08;100540.41;7793551;32;37090;-86
2024/01/12 15:36:17;;;;;;;15.18;6.72;;;;;;;4.97;38.06;100536.28;7793520;32;39204;-86
2024/01/12 15:40:34;;;;;;;14.55;7.32;;;;;;;4.59;38.86;100531.66;7793536;32;40871;-85
2024/01/12 15:44:50;;;;;;;12.35;6.85;;;;;;;4.29;39.64;100543.84;7793588;32;37971;-85
2024/01/12 15:49:07;;;;;;;14.55;7.28;;;;;;;3.97;40.25;100550.94;7793494;32;37047;-85
2024/01/12 15:53:23;;;;;;;22.67;9.75;;;;;;;3.79;40.90;100556.97;7793582;32;39456;-85
2024/01/12 15:57:40;;;;;;;26.00;11.55;;;;;;;3.99;40.32;100551.56;7793298;32;40705;-86
2024/01/12 16:01:56;;;;;;;19.98;8.32;;;;;;;3.66;41.37;100563.22;7793362;32;38012;-85
2024/01/12 16:06:12;;;;;;;16.33;8.32;;;;;;;3.43;41.77;100549.28;7792591;32;36999;-86
2024/01/12 16:10:30;;;;;;;19.20;9.35;;;;;;;2.64;43.50;100548.91;7793307;32;39968;-86
2024/01/12 16:14:47;;;;;;;17.77;8.70;;;;;;;3.06;42.83;100543.44;7793190;32;39782;-85
2024/01/12 16:19:03;;;;;;;19.62;8.57;;;;;;;3.23;42.55;100544.72;7793023;32;37871;-86
2024/01/12 16:23:30;;;;;;;19.73;9.05;;;;;;;3.00;43.54;100554.00;7793000;32;36882;-85
2024/01/12 16:27:49;;;;;;;16.10;8.93;;;;;;;3.07;43.36;100550.47;7793135;32;39324;-85
2024/01/12 16:32:06;;;;;;;16.75;8.25;;;;;;;2.97;43.52;100545.50;7778125;32;40845;-84
2024/01/12 16:36:22;;;;;;;17.17;8.60;;;;;;;2.88;43.80;100547.53;7765856;32;37976;-85
2024/01/12 16:40:38;;;;;;;14.55;7.50;;;;;;;2.98;43.45;100552.53;7765777;32;37744;-85
2024/01/12 16:44:54;;;;;;;13.50;7.10;;;;;;;2.68;44.38;100557.41;7764800;32;39172;-84
2024/01/12 16:49:13;;;;;;;13.13;6.85;;;;;;;2.38;45.37;100563.06;7763518;32;40624;-85
2024/01/12 16:53:30;;;;;;;13.73;7.05;;;;;;;2.07;46.01;100577.78;7764721;32;37652;-85
2024/01/12 16:57:46;;;;;;;14.95;8.07;;;;;;;2.21;45.51;100582.22;7764822;32;37826;-85
2024/01/12 17:02:02;;;;;;;15.60;8.43;;;;;;;2.17;45.75;100580.13;7764981;32;39612;-85
2024/01/12 17:06:18;;;;;;;15.48;8.00;;;;;;;2.26;45.38;100581.62;7765620;32;40736;-85
2024/01/12 17:10:35;;;;;;;13.30;7.12;;;;;;;2.29;45.43;100581.22;7765600;32;38664;-85
2024/01/12 17:14:51;;;;;;;13.27;7.47;;;;;;;2.00;46.32;100576.88;7765384;32;37008;-85
2024/01/12 17:19:08;;;;;;;10.73;6.55;;;;;;;2.21;45.44;100578.72;7765523;32;40052;-85
2024/01/12 17:23:25;;;;;;;13.93;6.80;;;;;;;2.03;45.72;100576.50;7765348;32;40021;-85
2024/01/12 17:27:41;;;;;;;16.27;7.85;;;;;;;1.37;47.48;100577.62;7765470;32;38234;-84
2024/01/12 17:31:58;;;;;;;15.75;8.60;;;;;;;1.49;47.09;100578.78;7765409;32;36677;-84
2024/01/12 17:36:15;;;;;;;19.70;9.38;;;;;;;1.54;47.25;100578.19;7765546;32;39444;-84
2024/01/12 17:40:31;;;;;;;19.70;9.15;;;;;;;1.49;47.13;100576.06;7765326;32;39650;-85
2024/01/12 17:44:48;;;;;;;20.33;11.18;;;;;;;1.87;46.20;100574.94;7764980;32;37676;-84
2024/01/12 17:49:05;;;;;;;17.83;10.65;;;;;;;1.86;46.34;100575.97;7765179;32;37172;-84
2024/01/12 17:53:21;;;;;;;18.90;9.90;;;;;;;1.92;46.19;100587.81;7765047;32;39330;-84
2024/01/12 17:57:39;;;;;;;20.15;10.95;;;;;;;2.02;45.81;100599.87;7764922;32;39926;-84
2024/01/12 18:01:55;;;;;;;19.33;11.00;;;;;;;1.54;46.92;100582.75;7764822;32;38834;-84
2024/01/12 18:06:11;;;;;;;18.12;9.38;;;;;;;1.77;46.61;100585.22;7765031;32;37106;-83
2024/01/12 18:10:27;;;;;;;15.57;8.77;;;;;;;1.85;46.38;100585.06;7764875;32;38925;-84
2024/01/12 18:14:44;;;;;;;21.05;8.32;;;;;;;1.96;46.04;100583.69;7764856;32;40521;-84
2024/01/12 18:19:00;;;;;;;13.43;7.12;;;;;;;1.85;46.60;100590.44;7764624;32;37874;-84
2024/01/12 18:23:18;;;;;;;15.07;7.95;;;;;;;1.60;47.14;100587.34;7764423;32;37177;-84
2024/01/12 18:27:36;;;;;;;15.98;8.07;;;;;;;1.78;46.69;100582.34;7763745;32;39234;-84
2024/01/12 18:31:53;;;;;;;15.00;7.12;;;;;;;1.77;46.59;100569.09;7764497;32;40034;-84
2024/01/12 18:36:11;;;;;;;11.98;6.72;;;;;;;1.47;47.60;100577.31;7764702;32;38675;-83
2024/01/12 18:40:28;;;;;;;12.25;6.68;;;;;;;1.43;47.55;100574.19;7770755;32;37107;-84
2024/01/12 18:44:44;;;;;;;10.40;7.30;;;;;;;1.55;47.31;100573.66;7784127;32;39996;-84
2024/01/12 18:49:00;;;;;;;15.65;7.57;;;;;;;1.47;47.35;100569.25;7787935;32;40487;-81
2024/01/12 18:53:17;;;;;;;12.43;7.25;;;;;;;1.23;47.77;100573.16;7766175;32;37969;-83
2024/01/12 18:57:34;;;;;;;16.42;8.10;;;;;;;1.38;47.38;100576.63;7762951;32;36718;-83
2024/01/12 19:01:50;;;;;;;12.68;6.68;;;;;;;1.46;47.18;100571.09;7763626;32;40078;-84
2024/01/12 19:06:08;;;;;;;10.32;6.30;;;;;;;1.35;47.36;100562.72;7767004;32;39803;-83
2024/01/12 19:10:28;;;;;;;12.18;6.78;;;;;;;1.07;48.02;100558.94;7763114;32;38750;-84
2024/01/12 19:14:44;;;;;;;14.38;7.12;;;;;;;1.19;47.54;100553.06;7764346;32;37222;-84
2024/01/12 19:19:02;;;;;;;11.68;6.87;;;;;;;0.91;48.14;100567.22;7781393;32;40046;-84
2024/01/12 19:23:19;;;;;;;11.38;6.68;;;;;;;0.45;48.73;100562.13;7770578;32;40058;-83
2024/01/12 19:27:35;;;;;;;13.30;7.53;;;;;;;1.10;47.38;100566.63;7761916;32;38895;-83
2024/01/12 19:31:51;;;;;;;17.45;7.90;;;;;;;1.11;47.05;100557.53;7758293;32;37207;-83
2024/01/12 19:36:08;;;;;;;18.75;7.62;;;;;;;0.99;47.06;100551.00;7760977;32;39734;-83
2024/01/12 19:40:24;;;;;;;12.88;7.07;;;;;;;0.93;47.52;100549.06;7777863;32;39771;-83